Time;durP1;ratioP1;P1;durP2;ratioP2;P2;SDS_P1;SDS_P2;PMS_P1;PMS_P2;Temp;Humidity;BMP_temperature;BMP_pressure;BME280_temperature;BME280_humidity;BME280_pressure;Samples;Min_cycle;Max_cycle;Signal;HPM_P1;HPM_P2
2023/06/26 00:00:05;;;;;;;8.07;5.20;;;20.80;99.90;;;;;;5093698;28;20179;-44
2023/06/26 00:02:32;;;;;;;5.57;4.97;;;20.80;99.90;;;;;;5093614;28;20655;-44
2023/06/26 00:04:58;;;;;;;6.63;5.13;;;20.80;99.90;;;;;;5093510;28;20670;-45
2023/06/26 00:07:23;;;;;;;9.00;5.50;;;20.70;99.90;;;;;;5093657;28;20189;-42
2023/06/26 00:09:49;;;;;;;5.37;4.83;;;20.70;99.90;;;;;;5093582;28;20691;-43
2023/06/26 00:12:15;;;;;;;9.73;5.43;;;20.60;99.90;;;;;;5093631;28;20523;-43
2023/06/26 00:14:40;;;;;;;5.43;4.90;;;20.60;99.90;;;;;;5093621;28;20202;-43
2023/06/26 00:17:06;;;;;;;9.23;5.20;;;20.60;99.90;;;;;;5094171;28;20291;-42
2023/06/26 00:19:31;;;;;;;6.43;5.17;;;20.50;99.90;;;;;;5093506;28;20654;-41
2023/06/26 00:21:57;;;;;;;10.57;5.20;;;20.50;99.90;;;;;;5094036;28;20206;-42
2023/06/26 00:24:23;;;;;;;8.23;5.63;;;20.40;99.90;;;;;;5093452;28;20205;-43
2023/06/26 00:26:49;;;;;;;5.87;5.27;;;20.40;99.90;;;;;;5093426;28;20553;-42
2023/06/26 00:29:15;;;;;;;5.97;5.37;;;20.30;99.90;;;;;;5093713;28;20651;-43
2023/06/26 00:31:40;;;;;;;5.67;5.00;;;20.30;99.90;;;;;;5093695;28;20183;-43
2023/06/26 00:34:06;;;;;;;7.80;5.43;;;20.30;99.90;;;;;;5093459;28;20609;-42
2023/06/26 00:36:32;;;;;;;7.73;5.70;;;20.20;99.90;;;;;;5075147;28;20171;-42
2023/06/26 00:38:58;;;;;;;5.60;5.10;;;20.20;99.90;;;;;;5093556;28;20183;-42
2023/06/26 00:41:24;;;;;;;6.73;4.87;;;20.20;99.90;;;;;;5075229;28;20205;-43
2023/06/26 00:43:50;;;;;;;6.47;5.40;;;20.20;99.90;;;;;;5093447;28;20546;-45
2023/06/26 00:46:16;;;;;;;5.47;4.73;;;20.20;99.90;;;;;;5093436;28;20576;-42
2023/06/26 00:48:43;;;;;;;5.93;5.30;;;20.10;99.90;;;;;;5093306;28;20239;-43
2023/06/26 00:51:09;;;;;;;8.07;5.33;;;20.10;99.90;;;;;;5093443;28;20179;-42
2023/06/26 00:53:35;;;;;;;6.63;4.90;;;20.00;99.90;;;;;;5093195;28;20197;-43
2023/06/26 00:56:02;;;;;;;8.43;5.53;;;20.00;99.90;;;;;;5093566;28;20203;-43
2023/06/26 00:58:27;;;;;;;6.33;5.07;;;20.00;99.90;;;;;;5092937;28;20229;-43
2023/06/26 01:00:53;;;;;;;7.37;5.10;;;20.00;99.90;;;;;;5093418;28;20182;-43
2023/06/26 01:03:28;;;;;;;6.60;4.77;;;19.90;99.90;;;;;;5093383;28;20275;-42
2023/06/26 01:05:56;;;;;;;7.10;5.43;;;19.90;99.90;;;;;;5093025;28;20202;-43
2023/06/26 01:08:22;;;;;;;5.63;5.10;;;19.90;99.90;;;;;;5093048;28;20189;-44
2023/06/26 01:10:48;;;;;;;7.13;5.57;;;19.80;99.90;;;;;;5094068;28;20185;-42
2023/06/26 01:13:16;;;;;;;7.93;4.93;;;19.80;99.90;;;;;;5095307;28;20575;-44
2023/06/26 01:15:42;;;;;;;7.00;5.33;;;19.70;99.90;;;;;;5096858;28;20229;-43
2023/06/26 01:18:08;;;;;;;9.17;5.33;;;19.70;99.90;;;;;;5096990;28;20659;-44
2023/06/26 01:20:41;;;;;;;14.77;5.53;;;19.70;99.90;;;;;;5097015;28;20661;-41
2023/06/26 01:23:20;;;;;;;8.90;5.70;;;19.70;99.90;;;;;;5096693;28;20179;-43
2023/06/26 01:26:07;;;;;;;8.30;5.43;;;19.60;99.90;;;;;;5096963;28;20285;-43
2023/06/26 01:28:35;;;;;;;7.63;5.13;;;19.50;99.90;;;;;;5096853;28;20600;-46
2023/06/26 01:31:02;;;;;;;8.37;4.90;;;19.50;99.90;;;;;;5096880;28;20190;-46
2023/06/26 01:33:28;;;;;;;6.03;5.23;;;19.50;99.90;;;;;;5096450;28;20179;-44
2023/06/26 01:35:54;;;;;;;8.40;5.33;;;19.50;99.90;;;;;;5096700;28;20210;-45
2023/06/26 01:38:23;;;;;;;7.20;4.93;;;19.50;99.90;;;;;;5096402;28;20211;-46
2023/06/26 01:40:49;;;;;;;5.57;5.00;;;19.40;99.90;;;;;;5097264;28;20217;-47
2023/06/26 01:43:49;;;;;;;6.67;4.83;;;19.40;99.90;;;;;;5096378;28;20200;-47
2023/06/26 01:46:22;;;;;;;9.90;5.27;;;19.40;99.90;;;;;;5096588;28;20250;-45
2023/06/26 01:49:01;;;;;;;9.77;5.20;;;19.40;99.90;;;;;;5078674;28;20175;-45
2023/06/26 01:51:33;;;;;;;9.87;5.17;;;19.40;99.90;;;;;;5096489;28;20224;-46
2023/06/26 01:54:00;;;;;;;10.20;5.47;;;19.40;99.90;;;;;;5097016;28;20210;-45
2023/06/26 01:56:28;;;;;;;8.33;5.13;;;19.30;99.90;;;;;;5095970;28;20206;-46
2023/06/26 01:58:55;;;;;;;14.93;5.50;;;19.30;99.90;;;;;;5096317;28;20270;-45
2023/06/26 02:01:21;;;;;;;6.47;4.97;;;19.30;99.90;;;;;;5095973;28;20666;-46
2023/06/26 02:03:48;;;;;;;7.97;5.10;;;19.30;99.90;;;;;;5095911;28;20198;-45
2023/06/26 02:06:14;;;;;;;8.37;5.57;;;19.30;99.90;;;;;;5096165;28;20171;-46
2023/06/26 02:08:40;;;;;;;7.23;4.90;;;19.30;99.90;;;;;;5095870;28;20265;-44
2023/06/26 02:11:05;;;;;;;8.47;5.23;;;19.30;99.90;;;;;;5095936;28;20651;-45
2023/06/26 02:13:31;;;;;;;7.63;4.97;;;19.30;99.90;;;;;;5096044;28;20175;-45
2023/06/26 02:15:57;;;;;;;7.57;4.90;;;19.40;99.90;;;;;;5095613;28;20225;-45
2023/06/26 02:18:23;;;;;;;5.60;4.70;;;19.40;99.90;;;;;;5096100;28;20214;-45
2023/06/26 02:20:49;;;;;;;6.70;5.00;;;19.60;99.90;;;;;;5095909;28;20312;-45
2023/06/26 02:23:14;;;;;;;6.97;4.87;;;19.70;99.90;;;;;;5095864;28;20266;-44
2023/06/26 02:25:40;;;;;;;6.07;5.37;;;19.80;99.90;;;;;;5095578;28;20291;-45
2023/06/26 02:28:05;;;;;;;10.40;4.67;;;19.80;99.90;;;;;;5095510;28;20189;-46
2023/06/26 02:30:31;;;;;;;7.50;5.13;;;19.90;99.90;;;;;;5095701;28;20648;-48
2023/06/26 02:32:56;;;;;;;7.37;5.03;;;19.90;99.90;;;;;;5095702;28;20278;-44
2023/06/26 02:35:22;;;;;;;6.57;5.47;;;19.90;99.90;;;;;;5095287;28;20203;-46
2023/06/26 02:37:48;;;;;;;8.43;5.10;;;19.90;99.90;;;;;;5095158;28;20206;-45
2023/06/26 02:40:13;;;;;;;7.50;5.70;;;19.90;99.90;;;;;;5095236;28;20258;-45
2023/06/26 02:42:39;;;;;;;6.40;5.67;;;19.90;99.90;;;;;;5095406;28;20635;-46
2023/06/26 02:45:05;;;;;;;9.40;5.73;;;19.90;99.90;;;;;;5095073;28;20203;-44
2023/06/26 02:47:31;;;;;;;8.00;5.10;;;19.90;99.90;;;;;;5095235;28;20171;-43
2023/06/26 02:49:56;;;;;;;6.67;4.93;;;19.90;99.90;;;;;;5095097;28;20178;-44
2023/06/26 02:52:22;;;;;;;8.67;4.70;;;19.90;99.90;;;;;;5095189;28;20191;-44
2023/06/26 02:54:47;;;;;;;6.90;5.40;;;19.80;99.90;;;;;;5095189;28;20675;-44
2023/06/26 02:57:14;;;;;;;8.90;5.57;;;19.80;99.90;;;;;;5094751;28;20250;-45
2023/06/26 02:59:40;;;;;;;6.90;5.10;;;19.80;99.90;;;;;;5095053;28;20186;-45
2023/06/26 03:02:05;;;;;;;6.53;5.30;;;19.80;99.90;;;;;;5094960;28;20183;-46
2023/06/26 03:04:31;;;;;;;7.30;5.03;;;19.80;99.90;;;;;;5095298;28;20329;-46
2023/06/26 03:06:57;;;;;;;9.13;5.07;;;19.80;99.90;;;;;;5094684;28;20239;-47
2023/06/26 03:09:22;;;;;;;7.43;4.47;;;19.80;99.90;;;;;;5094609;28;20694;-45
2023/06/26 03:11:48;;;;;;;8.23;4.60;;;19.80;99.90;;;;;;5094791;28;20266;-44
2023/06/26 03:14:14;;;;;;;5.13;4.63;;;19.80;99.90;;;;;;5094724;28;20202;-44
2023/06/26 03:16:40;;;;;;;7.03;4.43;;;19.80;99.90;;;;;;5094380;28;20551;-44
2023/06/26 03:19:05;;;;;;;6.53;4.70;;;19.80;99.90;;;;;;5094413;28;20201;-45
2023/06/26 03:21:32;;;;;;;4.73;4.20;;;19.80;99.90;;;;;;5094394;28;20267;-46
2023/06/26 03:23:58;;;;;;;14.43;5.00;;;19.80;99.90;;;;;;5094415;28;20202;-46
2023/06/26 03:26:27;;;;;;;6.00;4.80;;;19.80;99.90;;;;;;5094565;28;20220;-46
2023/06/26 03:28:53;;;;;;;5.43;4.53;;;19.70;99.90;;;;;;5094241;28;20183;-46
2023/06/26 03:31:19;;;;;;;6.13;5.23;;;19.70;99.90;;;;;;5094159;28;20270;-45
2023/06/26 03:33:45;;;;;;;6.40;4.60;;;19.70;99.90;;;;;;5094085;28;20214;-44
2023/06/26 03:36:10;;;;;;;6.33;5.33;;;19.70;99.90;;;;;;5093944;28;20631;-46
2023/06/26 03:38:36;;;;;;;5.53;4.83;;;19.70;99.90;;;;;;5094313;28;20207;-46
2023/06/26 03:41:02;;;;;;;6.53;5.23;;;19.70;99.90;;;;;;5094083;28;20186;-45
2023/06/26 03:43:28;;;;;;;5.80;4.90;;;19.70;99.90;;;;;;5094554;28;20206;-45
2023/06/26 03:45:53;;;;;;;6.73;5.47;;;19.70;99.90;;;;;;5093939;28;20196;-44
2023/06/26 03:48:19;;;;;;;7.87;4.80;;;19.70;99.90;;;;;;5093972;28;20193;-44
2023/06/26 03:50:45;;;;;;;6.50;5.30;;;19.70;99.90;;;;;;5093959;28;20643;-46
2023/06/26 03:53:11;;;;;;;6.30;4.80;;;19.70;99.90;;;;;;5094116;28;20190;-45
2023/06/26 03:55:38;;;;;;;9.47;4.70;;;19.70;99.90;;;;;;5093808;28;20220;-45
2023/06/26 03:58:04;;;;;;;7.80;4.90;;;19.70;99.90;;;;;;5093621;28;20211;-44
2023/06/26 04:00:30;;;;;;;9.40;5.10;;;19.70;99.90;;;;;;5093703;28;20174;-45
2023/06/26 04:02:57;;;;;;;11.07;5.07;;;19.70;99.90;;;;;;5094215;28;20174;-46
2023/06/26 04:05:22;;;;;;;11.83;4.90;;;19.70;99.90;;;;;;5093564;28;20230;-47
2023/06/26 04:07:52;;;;;;;9.87;4.87;;;19.70;99.90;;;;;;5094172;28;20187;-46
2023/06/26 04:10:20;;;;;;;9.30;4.17;;;19.70;99.90;;;;;;5093613;28;20171;-46
2023/06/26 04:12:46;;;;;;;6.73;4.20;;;19.70;99.90;;;;;;5093879;28;20182;-47
2023/06/26 04:15:12;;;;;;;7.20;4.80;;;19.70;99.90;;;;;;5093726;28;20226;-46
2023/06/26 04:17:37;;;;;;;4.97;4.07;;;19.70;99.90;;;;;;5093453;28;20285;-46
2023/06/26 04:20:07;;;;;;;8.93;4.33;;;19.70;99.90;;;;;;5093522;28;20170;-46
2023/06/26 04:22:33;;;;;;;5.90;4.77;;;19.70;99.90;;;;;;5093480;28;20171;-45
2023/06/26 04:25:00;;;;;;;7.30;4.10;;;19.70;99.90;;;;;;5093409;28;20274;-46
2023/06/26 04:27:25;;;;;;;6.87;4.77;;;19.60;99.90;;;;;;5093719;28;20229;-45
2023/06/26 04:29:51;;;;;;;8.93;4.30;;;19.60;99.90;;;;;;5093412;28;20179;-46
2023/06/26 04:32:16;;;;;;;7.27;3.93;;;19.60;99.90;;;;;;5093392;28;20174;-45
2023/06/26 04:34:45;;;;;;;6.37;4.03;;;19.50;99.90;;;;;;5093400;28;20317;-45
2023/06/26 04:37:10;;;;;;;4.53;3.70;;;19.50;99.90;;;;;;5093218;28;20206;-45
2023/06/26 04:39:37;;;;;;;6.03;3.93;;;19.50;99.90;;;;;;5093584;28;20182;-47
2023/06/26 04:42:04;;;;;;;6.57;3.90;;;19.50;99.90;;;;;;5093785;28;20608;-44
2023/06/26 04:44:29;;;;;;;5.87;4.00;;;19.50;99.90;;;;;;5093188;28;20206;-45
2023/06/26 04:46:55;;;;;;;6.07;4.10;;;19.50;99.90;;;;;;5093196;28;20194;-46
2023/06/26 04:49:20;;;;;;;7.93;4.10;;;19.50;99.90;;;;;;5097350;28;20189;-44
2023/06/26 04:51:46;;;;;;;6.00;4.00;;;19.60;99.90;;;;;;5097360;28;20674;-45
2023/06/26 04:54:12;;;;;;;6.57;3.90;;;19.50;99.90;;;;;;5097251;28;20697;-45
2023/06/26 04:56:39;;;;;;;7.73;3.80;;;19.50;99.90;;;;;;5097032;28;20190;-45
2023/06/26 04:59:05;;;;;;;8.47;3.87;;;19.60;99.90;;;;;;5097396;28;20190;-45
2023/06/26 05:01:32;;;;;;;5.33;4.00;;;19.50;99.90;;;;;;5097398;28;20175;-45
2023/06/26 05:04:00;;;;;;;7.57;3.57;;;19.50;99.90;;;;;;5097262;28;20307;-44
2023/06/26 05:06:26;;;;;;;13.10;4.30;;;19.50;99.90;;;;;;5097014;28;20216;-45
2023/06/26 05:08:51;;;;;;;7.87;4.53;;;19.50;99.90;;;;;;5096943;28;20183;-46
2023/06/26 05:11:17;;;;;;;6.60;3.60;;;19.40;99.90;;;;;;5096934;28;20175;-44
2023/06/26 05:13:43;;;;;;;6.27;4.30;;;19.40;99.90;;;;;;5097350;28;20182;-46
2023/06/26 05:16:09;;;;;;;6.67;3.83;;;19.40;99.90;;;;;;5097111;28;20185;-47
2023/06/26 05:18:35;;;;;;;11.30;4.20;;;19.40;99.90;;;;;;5097085;28;20273;-47
2023/06/26 05:21:01;;;;;;;6.30;3.87;;;19.50;99.90;;;;;;5096698;28;20183;-47
2023/06/26 05:23:30;;;;;;;8.53;3.97;;;19.50;99.90;;;;;;5097141;28;20666;-47
2023/06/26 05:25:56;;;;;;;5.23;4.10;;;19.50;99.90;;;;;;5096655;28;20236;-46
2023/06/26 05:28:24;;;;;;;8.70;3.90;;;19.60;99.90;;;;;;5096603;28;20647;-46
2023/06/26 05:30:50;;;;;;;4.63;3.43;;;19.70;99.90;;;;;;5096797;28;20190;-46
2023/06/26 05:33:18;;;;;;;9.17;3.60;;;19.70;99.90;;;;;;5078345;28;20190;-45
2023/06/26 05:35:45;;;;;;;6.57;3.57;;;19.70;99.90;;;;;;5096917;28;20693;-45
2023/06/26 05:38:13;;;;;;;8.60;3.30;;;19.70;99.90;;;;;;5096334;28;20222;-46
2023/06/26 05:40:40;;;;;;;8.70;3.90;;;19.70;99.90;;;;;;5096664;28;20175;-46
2023/06/26 05:43:06;;;;;;;6.03;3.40;;;19.70;99.90;;;;;;5096365;28;20201;-45
2023/06/26 05:45:31;;;;;;;6.87;3.30;;;19.70;99.90;;;;;;5096161;28;20198;-46
2023/06/26 05:47:57;;;;;;;6.97;3.40;;;19.70;99.90;;;;;;5096192;28;20267;-46
2023/06/26 05:50:23;;;;;;;5.90;3.57;;;19.80;99.90;;;;;;5096216;28;20253;-45
2023/06/26 05:52:49;;;;;;;6.37;3.43;;;19.80;99.90;;;;;;5096127;28;20193;-45
2023/06/26 05:55:15;;;;;;;11.57;3.60;;;19.90;99.90;;;;;;5095972;28;20750;-42
2023/06/26 05:57:41;;;;;;;9.73;3.53;;;19.90;99.90;;;;;;5095830;28;20713;-46
2023/06/26 06:00:10;;;;;;;9.17;3.70;;;20.00;99.90;;;;;;5095548;28;20175;-44
2023/06/26 06:02:37;;;;;;;6.93;3.30;;;20.00;99.90;;;;;;5095847;28;20644;-46
2023/06/26 06:05:03;;;;;;;9.23;4.00;;;20.10;99.90;;;;;;5095888;28;20274;-46
2023/06/26 06:07:29;;;;;;;8.53;3.60;;;20.20;99.90;;;;;;5095879;28;20171;-47
2023/06/26 06:09:54;;;;;;;8.97;3.80;;;20.30;99.90;;;;;;5095810;28;20186;-45
2023/06/26 06:12:20;;;;;;;6.53;3.33;;;20.30;99.90;;;;;;5096108;28;20584;-45
2023/06/26 06:14:45;;;;;;;8.20;3.43;;;20.40;99.90;;;;;;5095661;28;20206;-44
2023/06/26 06:17:11;;;;;;;6.70;3.50;;;20.50;99.90;;;;;;5095593;28;20207;-47
2023/06/26 06:19:36;;;;;;;5.97;3.27;;;20.60;99.90;;;;;;5095666;28;20202;-46
2023/06/26 06:22:02;;;;;;;9.93;4.03;;;20.60;99.90;;;;;;5095888;28;20257;-46
2023/06/26 06:24:27;;;;;;;9.30;3.47;;;20.70;99.90;;;;;;5095483;28;20202;-45
2023/06/26 06:26:53;;;;;;;6.57;3.73;;;20.80;99.90;;;;;;5095525;28;20233;-46
2023/06/26 06:29:19;;;;;;;11.03;3.13;;;20.90;99.90;;;;;;5095442;28;20179;-47
2023/06/26 06:31:45;;;;;;;7.97;3.97;;;21.00;99.90;;;;;;5095328;28;20190;-46
2023/06/26 06:34:11;;;;;;;7.87;3.67;;;21.10;99.90;;;;;;5095299;28;20202;-48
2023/06/26 06:36:37;;;;;;;9.80;4.10;;;21.10;99.90;;;;;;5095507;28;20247;-45
2023/06/26 06:39:03;;;;;;;7.23;3.80;;;21.20;99.90;;;;;;5095464;28;20654;-46
2023/06/26 06:41:29;;;;;;;6.70;3.37;;;21.40;99.90;;;;;;5095191;28;20179;-46
2023/06/26 06:43:54;;;;;;;7.67;3.67;;;21.40;99.90;;;;;;5095355;28;20235;-47
2023/06/26 06:46:20;;;;;;;6.53;3.60;;;21.50;99.90;;;;;;5095377;28;20175;-46
2023/06/26 06:48:46;;;;;;;13.10;3.80;;;21.70;99.90;;;;;;5095293;28;20187;-46
2023/06/26 06:51:12;;;;;;;14.10;4.17;;;21.80;99.90;;;;;;5095349;28;20174;-46
2023/06/26 06:53:38;;;;;;;8.93;3.53;;;21.90;99.90;;;;;;5095144;28;20190;-48
2023/06/26 06:56:04;;;;;;;7.00;3.73;;;22.00;99.90;;;;;;5095187;28;20229;-46
2023/06/26 06:58:33;;;;;;;12.27;3.80;;;22.10;99.90;;;;;;5095088;28;20213;-47
2023/06/26 07:00:59;;;;;;;6.50;3.30;;;22.20;99.90;;;;;;5095143;28;20175;-45
2023/06/26 07:03:25;;;;;;;12.10;3.37;;;22.20;99.90;;;;;;5094952;28;20615;-47
2023/06/26 07:05:50;;;;;;;12.27;3.50;;;22.30;99.90;;;;;;5094751;28;20199;-47
2023/06/26 07:08:16;;;;;;;8.77;4.13;;;22.30;99.90;;;;;;5095649;28;20186;-47
2023/06/26 07:10:41;;;;;;;11.63;3.80;;;22.30;99.90;;;;;;5093848;28;20232;-46
2023/06/26 07:13:07;;;;;;;7.20;3.10;;;22.30;99.90;;;;;;5095173;28;20179;-46
2023/06/26 07:15:33;;;;;;;7.03;3.30;;;22.40;99.90;;;;;;5094635;28;20670;-47
2023/06/26 07:17:58;;;;;;;8.63;3.50;;;22.50;99.90;;;;;;5094392;28;20208;-47
2023/06/26 07:20:24;;;;;;;12.97;3.47;;;22.60;99.90;;;;;;5094803;28;20171;-45
2023/06/26 07:22:50;;;;;;;8.43;3.60;;;22.80;99.90;;;;;;5094518;28;20232;-47
2023/06/26 07:25:16;;;;;;;6.90;3.20;;;22.90;99.90;;;;;;5094539;28;20240;-47
2023/06/26 07:27:42;;;;;;;7.17;3.30;;;23.00;99.90;;;;;;5094342;28;20175;-45
2023/06/26 07:30:09;;;;;;;8.33;3.10;;;23.00;99.90;;;;;;5094630;28;20183;-47
2023/06/26 07:32:35;;;;;;;5.63;2.60;;;23.10;99.90;;;;;;5094281;28;20167;-47
2023/06/26 07:35:01;;;;;;;6.17;3.00;;;23.10;99.90;;;;;;5094171;28;20199;-47
2023/06/26 07:37:26;;;;;;;5.60;2.50;;;23.10;99.90;;;;;;5094405;28;20214;-46
2023/06/26 07:39:52;;;;;;;7.57;3.10;;;23.00;99.90;;;;;;5094139;28;20171;-47
2023/06/26 07:42:17;;;;;;;10.43;3.63;;;23.00;99.90;;;;;;5094387;28;20177;-47
2023/06/26 07:44:43;;;;;;;7.70;3.00;;;23.10;99.90;;;;;;5094377;28;20195;-46
2023/06/26 07:47:09;;;;;;;6.93;3.17;;;23.20;99.90;;;;;;5094553;28;20206;-42
2023/06/26 07:49:35;;;;;;;7.60;3.10;;;23.30;99.90;;;;;;5094036;28;20601;-42
2023/06/26 07:52:01;;;;;;;9.50;3.30;;;23.40;99.90;;;;;;5094127;28;20215;-41
2023/06/26 07:54:27;;;;;;;10.17;3.67;;;23.40;99.90;;;;;;5093977;28;20285;-42
2023/06/26 07:56:54;;;;;;;12.47;3.03;;;23.30;99.90;;;;;;5075655;28;20217;-43
2023/06/26 07:59:21;;;;;;;8.27;3.20;;;23.30;99.90;;;;;;5094103;28;20183;-42
2023/06/26 08:01:46;;;;;;;10.63;3.67;;;23.40;99.90;;;;;;5094324;28;20191;-43
2023/06/26 08:04:12;;;;;;;7.70;3.10;;;23.50;99.90;;;;;;5093903;28;20222;-43
2023/06/26 08:06:40;;;;;;;10.00;3.13;;;23.60;99.90;;;;;;5093894;28;20184;-41
2023/06/26 08:09:07;;;;;;;7.83;3.57;;;23.60;99.90;;;;;;5095214;28;20175;-42
2023/06/26 08:11:33;;;;;;;7.43;3.30;;;23.40;99.90;;;;;;5094259;28;20167;-43
2023/06/26 08:13:59;;;;;;;10.73;3.17;;;23.30;99.90;;;;;;5093751;28;20658;-43
2023/06/26 08:16:24;;;;;;;10.73;3.63;;;23.20;99.90;;;;;;5075773;28;20206;-43
2023/06/26 08:18:50;;;;;;;11.53;3.57;;;23.10;99.90;;;;;;5093586;28;20198;-42
2023/06/26 08:21:16;;;;;;;11.93;3.27;;;23.10;99.90;;;;;;5093915;28;20540;-43
2023/06/26 08:23:41;;;;;;;10.27;3.27;;;23.20;99.90;;;;;;5093513;28;20171;-43
2023/06/26 08:26:08;;;;;;;11.90;3.17;;;23.30;99.90;;;;;;5093564;28;20588;-42
2023/06/26 08:28:33;;;;;;;8.10;3.03;;;23.40;99.90;;;;;;5093552;28;20544;-43
2023/06/26 08:30:59;;;;;;;5.80;3.03;;;23.50;99.90;;;;;;5093779;28;20171;-42
2023/06/26 08:33:25;;;;;;;7.03;2.83;;;23.60;99.90;;;;;;5093680;28;20269;-43
2023/06/26 08:35:51;;;;;;;8.37;3.27;;;23.80;99.90;;;;;;5093602;28;20556;-41
2023/06/26 08:38:16;;;;;;;5.77;2.50;;;23.80;99.90;;;;;;5093276;28;20209;-43
2023/06/26 08:40:42;;;;;;;11.30;3.60;;;23.90;99.90;;;;;;5093251;28;20213;-42
2023/06/26 08:43:08;;;;;;;9.70;3.53;;;23.90;99.90;;;;;;5093499;28;20202;-41
2023/06/26 08:45:34;;;;;;;8.77;3.10;;;23.90;99.90;;;;;;5093278;28;20187;-43
2023/06/26 08:48:00;;;;;;;9.47;3.13;;;23.80;99.90;;;;;;5093259;28;20670;-42
2023/06/26 08:50:29;;;;;;;8.47;3.00;;;23.80;99.90;;;;;;5093175;28;20647;-39
2023/06/26 08:53:20;;;;;;;7.23;2.50;;;23.80;99.90;;;;;;5075212;28;20192;-41
2023/06/26 08:55:48;;;;;;;7.03;2.70;;;23.90;99.90;;;;;;5093675;28;20238;-41
2023/06/26 08:58:14;;;;;;;9.97;3.70;;;24.00;99.90;;;;;;5093138;28;20211;-41
2023/06/26 09:00:40;;;;;;;9.50;3.13;;;24.10;99.90;;;;;;5094029;28;20175;-42
2023/06/26 09:03:06;;;;;;;8.87;3.20;;;24.10;99.90;;;;;;5093338;28;20185;-43
2023/06/26 09:05:31;;;;;;;7.93;3.20;;;24.00;99.90;;;;;;5093250;28;20540;-42
2023/06/26 09:07:58;;;;;;;5.87;2.90;;;23.90;99.90;;;;;;5093327;28;20186;-42
2023/06/26 09:10:24;;;;;;;6.47;3.00;;;23.90;99.90;;;;;;5093092;28;20179;-43
2023/06/26 09:12:50;;;;;;;11.63;3.50;;;24.00;99.90;;;;;;5093071;28;20175;-42
2023/06/26 09:15:19;;;;;;;9.40;3.23;;;24.10;99.90;;;;;;5093043;28;20195;-41
2023/06/26 09:17:45;;;;;;;15.17;3.33;;;23.90;99.90;;;;;;5092946;28;20194;-42
2023/06/26 09:20:12;;;;;;;6.93;2.93;;;23.80;99.90;;;;;;5093751;28;20244;-44
2023/06/26 09:22:40;;;;;;;9.80;3.07;;;23.80;99.90;;;;;;5093378;28;20167;-42
2023/06/26 09:25:07;;;;;;;7.57;2.90;;;23.80;99.90;;;;;;5092838;28;20223;-42
2023/06/26 09:27:33;;;;;;;8.03;3.27;;;24.00;99.90;;;;;;5092964;28;20175;-44
2023/06/26 09:29:59;;;;;;;6.70;2.70;;;24.10;99.90;;;;;;5092959;28;20265;-42
2023/06/26 09:32:25;;;;;;;8.57;3.40;;;24.10;99.90;;;;;;5092853;28;20529;-43
2023/06/26 09:34:52;;;;;;;8.60;2.83;;;24.10;99.90;;;;;;5095423;28;20199;-43
2023/06/26 09:37:18;;;;;;;5.87;2.20;;;24.20;99.90;;;;;;5098244;28;20542;-44
2023/06/26 09:39:44;;;;;;;4.53;1.97;;;24.20;99.90;;;;;;5100487;28;20182;-43
2023/06/26 09:42:10;;;;;;;6.67;2.50;;;24.20;99.90;;;;;;5098703;28;20175;-43
2023/06/26 09:44:36;;;;;;;12.60;2.70;;;24.30;99.90;;;;;;5097099;28;20198;-43
2023/06/26 09:47:03;;;;;;;6.63;2.77;;;24.30;99.90;;;;;;5096590;28;20303;-43
2023/06/26 09:49:30;;;;;;;6.17;2.00;;;24.30;99.90;;;;;;5096494;28;20179;-42
2023/06/26 09:51:56;;;;;;;5.20;2.53;;;24.40;99.90;;;;;;5096225;28;20194;-42
2023/06/26 09:54:23;;;;;;;7.17;2.70;;;24.50;99.90;;;;;;5096253;28;20675;-42
2023/06/26 09:56:49;;;;;;;5.97;1.93;;;24.60;99.90;;;;;;5098122;28;20217;-43
2023/06/26 09:59:16;;;;;;;7.40;2.50;;;24.50;99.90;;;;;;5104081;28;20190;-43
2023/06/26 10:01:44;;;;;;;6.73;2.57;;;24.30;99.90;;;;;;5097419;28;20183;-45
2023/06/26 10:04:10;;;;;;;6.03;2.30;;;24.40;99.90;;;;;;5096186;28;20195;-42
2023/06/26 10:06:40;;;;;;;6.80;2.80;;;24.50;99.90;;;;;;5096203;28;20186;-43
2023/06/26 10:09:06;;;;;;;4.67;2.07;;;24.70;99.90;;;;;;5095917;28;20159;-44
2023/06/26 10:11:40;;;;;;;6.57;1.87;;;24.90;99.90;;;;;;5096170;28;20265;-43
2023/06/26 10:14:08;;;;;;;4.43;2.50;;;25.00;99.90;;;;;;5096044;28;20665;-42
2023/06/26 10:16:36;;;;;;;6.37;2.43;;;25.20;99.90;;;;;;5099448;28;20171;-41
2023/06/26 10:19:06;;;;;;;9.23;2.60;;;25.20;99.90;;;;;;5079865;28;20210;-44
2023/06/26 10:21:34;;;;;;;7.07;2.73;;;25.40;99.90;;;;;;5080677;28;20171;-43
2023/06/26 10:24:02;;;;;;;8.77;2.37;;;25.50;99.90;;;;;;5096710;28;20195;-42
2023/06/26 10:26:29;;;;;;;7.40;2.47;;;25.60;99.90;;;;;;5096703;28;20262;-49
2023/06/26 10:28:57;;;;;;;4.67;1.90;;;25.70;99.90;;;;;;5100259;28;20357;-48
2023/06/26 10:31:26;;;;;;;5.13;2.03;;;25.80;99.90;;;;;;5096382;28;20222;-50
2023/06/26 10:33:52;;;;;;;4.83;1.90;;;25.80;99.90;;;;;;5095526;28;20187;-48
2023/06/26 10:36:26;;;;;;;4.00;1.60;;;25.60;99.90;;;;;;5095379;28;20186;-51
2023/06/26 10:38:57;;;;;;;5.13;2.10;;;25.50;99.90;;;;;;5095501;28;20210;-51
2023/06/26 10:41:24;;;;;;;4.77;1.90;;;25.30;99.90;;;;;;5095620;28;20250;-49
2023/06/26 10:44:01;;;;;;;4.70;1.80;;;25.30;99.90;;;;;;5095459;28;20180;-49
2023/06/26 10:46:29;;;;;;;4.50;2.00;;;25.40;99.90;;;;;;5094255;28;20171;-49
2023/06/26 10:48:59;;;;;;;3.50;1.67;;;25.50;99.90;;;;;;5095082;28;20236;-50
2023/06/26 10:51:29;;;;;;;6.38;2.00;;;25.20;99.90;;;;;;5095353;28;20555;-50
2023/06/26 10:53:58;;;;;;;5.40;1.77;;;25.00;99.90;;;;;;5095560;28;20182;-50
2023/06/26 10:56:46;;;;;;;2.77;1.50;;;25.00;99.90;;;;;;5095085;28;20734;-50
2023/06/26 10:59:23;;;;;;;4.30;1.60;;;25.10;99.90;;;;;;5094968;28;20648;-50
2023/06/26 11:01:59;;;;;;;6.27;2.00;;;25.20;99.90;;;;;;5095215;28;20242;-50
2023/06/26 11:04:44;;;;;;;4.63;1.88;;;25.50;99.90;;;;;;5095025;28;20222;-49
2023/06/26 11:07:26;;;;;;;6.78;2.03;;;25.60;99.90;;;;;;5094767;28;20194;-50
2023/06/26 11:10:08;;;;;;;5.47;1.60;;;25.40;99.90;;;;;;5094715;28;20179;-49
2023/06/26 11:12:43;;;;;;;3.72;1.63;;;25.20;99.90;;;;;;5095063;28;20163;-49
2023/06/26 11:15:10;;;;;;;5.50;1.80;;;25.10;99.90;;;;;;5094496;28;20197;-48
2023/06/26 11:17:37;;;;;;;5.45;1.75;;;25.30;99.90;;;;;;5094753;28;20305;-50
2023/06/26 11:20:05;;;;;;;4.82;1.60;;;25.50;99.90;;;;;;5094780;28;20178;-49
2023/06/26 11:22:34;;;;;;;6.70;1.40;;;25.60;99.90;;;;;;5094703;28;20179;-49
2023/06/26 11:25:00;;;;;;;4.50;1.45;;;25.50;99.90;;;;;;5094366;28;20206;-49
2023/06/26 11:27:41;;;;;;;4.38;1.80;;;25.50;99.90;;;;;;5094630;28;20179;-49
2023/06/26 11:30:09;;;;;;;7.18;1.80;;;25.60;99.90;;;;;;5094678;28;20506;-48
2023/06/26 11:32:38;;;;;;;4.45;1.58;;;25.70;99.90;;;;;;5094519;28;20175;-48
2023/06/26 11:35:04;;;;;;;2.50;1.77;;;25.80;99.90;;;;;;5094202;28;20191;-49
2023/06/26 11:37:31;;;;;;;4.05;1.10;;;25.90;99.90;;;;;;5075935;28;20227;-49
2023/06/26 11:39:57;;;;;;;3.92;1.10;;;26.00;99.90;;;;;;5094151;28;20170;-50
2023/06/26 11:42:27;;;;;;;3.22;1.20;;;26.10;99.90;;;;;;5094179;28;20257;-49
2023/06/26 11:44:54;;;;;;;6.32;1.50;;;26.30;99.90;;;;;;5094292;28;20199;-49
2023/06/26 11:47:21;;;;;;;6.95;1.55;;;26.30;99.90;;;;;;5094073;28;20171;-50
2023/06/26 11:49:48;;;;;;;4.15;1.08;;;26.30;99.90;;;;;;5093926;28;20639;-50
2023/06/26 11:52:15;;;;;;;2.40;1.25;;;26.30;99.90;;;;;;5094211;28;20190;-50
2023/06/26 11:54:41;;;;;;;4.85;1.05;;;26.30;99.90;;;;;;5093830;28;20205;-49
2023/06/26 11:57:08;;;;;;;3.97;1.30;;;26.40;99.90;;;;;;5093263;28;20238;-50
2023/06/26 11:59:35;;;;;;;4.25;1.40;;;26.40;99.90;;;;;;5094144;28;20631;-50
2023/06/26 12:02:06;;;;;;;7.43;1.38;;;26.40;99.90;;;;;;5093753;28;20170;-51
2023/06/26 12:04:33;;;;;;;3.53;1.40;;;26.30;99.90;;;;;;5093867;28;20671;-50
2023/06/26 12:06:59;;;;;;;4.50;1.45;;;26.30;99.90;;;;;;5094006;28;20186;-50
2023/06/26 12:09:26;;;;;;;6.63;1.40;;;26.40;99.90;;;;;;5093891;28;20177;-50
2023/06/26 12:11:54;;;;;;;4.38;1.73;;;26.30;99.90;;;;;;5093633;28;20166;-50
2023/06/26 12:14:21;;;;;;;3.92;1.40;;;26.40;99.90;;;;;;5094135;28;20229;-49
2023/06/26 12:16:47;;;;;;;5.93;1.30;;;26.20;99.90;;;;;;5093549;28;20171;-49
2023/06/26 12:19:14;;;;;;;3.65;1.23;;;26.20;99.90;;;;;;5075396;28;20171;-49
2023/06/26 12:21:45;;;;;;;2.90;1.08;;;26.10;99.90;;;;;;5093531;28;20174;-50
2023/06/26 12:24:21;;;;;;;6.07;1.35;;;25.90;99.90;;;;;;5093767;28;20197;-50
2023/06/26 12:26:51;;;;;;;2.72;1.45;;;25.60;99.90;;;;;;5094029;28;20175;-50
2023/06/26 12:29:18;;;;;;;3.13;1.42;;;25.40;99.90;;;;;;5093658;28;20183;-50
2023/06/26 12:31:45;;;;;;;3.05;1.15;;;25.40;99.90;;;;;;5093718;28;20730;-49
2023/06/26 12:34:18;;;;;;;3.40;0.88;;;25.40;99.90;;;;;;5093550;28;20604;-50
2023/06/26 12:36:46;;;;;;;4.03;1.33;;;25.60;99.90;;;;;;5093859;28;20624;-50
2023/06/26 12:39:12;;;;;;;4.90;1.30;;;25.50;99.90;;;;;;5093512;28;20664;-50
2023/06/26 12:41:46;;;;;;;2.65;1.10;;;25.60;99.90;;;;;;5093627;28;20171;-50
2023/06/26 12:44:19;;;;;;;5.18;0.95;;;25.60;99.90;;;;;;5093146;28;20547;-51